sensor_id;sensor_type;location;lat;lon;timestamp;temperature;humidity
7216;DHT22;3649;48.798;9.798;2023-12-14T00:01:21;10.20;99.90
7216;DHT22;3649;48.798;9.798;2023-12-14T00:03:48;10.20;99.90
7216;DHT22;3649;48.798;9.798;2023-12-14T00:06:16;10.20;99.90
7216;DHT22;3649;48.798;9.798;2023-12-14T00:08:43;10.20;99.90
7216;DHT22;3649;48.798;9.798;2023-12-14T00:11:11;10.20;99.90
7216;DHT22;3649;48.798;9.798;2023-12-14T00:13:38;10.20;99.90
7216;DHT22;3649;48.798;9.798;2023-12-14T00:16:06;10.10;99.90
7216;DHT22;3649;48.798;9.798;2023-12-14T00:18:33;10.10;99.90
7216;DHT22;3649;48.798;9.798;2023-12-14T00:21:00;10.10;99.90
7216;DHT22;3649;48.798;9.798;2023-12-14T00:23:27;10.10;99.90
7216;DHT22;3649;48.798;9.798;2023-12-14T00:25:54;10.10;99.90
7216;DHT22;3649;48.798;9.798;2023-12-14T00:28:21;10.10;99.90
7216;DHT22;3649;48.798;9.798;2023-12-14T00:30:47;10.10;99.90
7216;DHT22;3649;48.798;9.798;2023-12-14T00:33:14;10.10;99.90
7216;DHT22;3649;48.798;9.798;2023-12-14T00:35:41;10.00;99.90
7216;DHT22;3649;48.798;9.798;2023-12-14T00:38:08;10.00;99.90
7216;DHT22;3649;48.798;9.798;2023-12-14T00:40:35;10.00;99.90
7216;DHT22;3649;48.798;9.798;2023-12-14T00:43:01;10.00;99.90
7216;DHT22;3649;48.798;9.798;2023-12-14T00:45:28;10.00;99.90
7216;DHT22;3649;48.798;9.798;2023-12-14T00:47:55;10.00;99.90
7216;DHT22;3649;48.798;9.798;2023-12-14T00:50:22;10.10;99.90
7216;DHT22;3649;48.798;9.798;2023-12-14T00:52:49;10.10;99.90
7216;DHT22;3649;48.798;9.798;2023-12-14T00:55:16;10.10;99.90
7216;DHT22;3649;48.798;9.798;2023-12-14T00:57:42;10.20;99.90
7216;DHT22;3649;48.798;9.798;2023-12-14T01:00:10;10.10;99.90
7216;DHT22;3649;48.798;9.798;2023-12-14T01:02:37;10.10;99.90
7216;DHT22;3649;48.798;9.798;2023-12-14T01:05:04;10.20;99.90
7216;DHT22;3649;48.798;9.798;2023-12-14T01:07:32;10.20;99.90
7216;DHT22;3649;48.798;9.798;2023-12-14T01:09:59;10.30;99.90
7216;DHT22;3649;48.798;9.798;2023-12-14T01:12:26;10.30;99.90
7216;DHT22;3649;48.798;9.798;2023-12-14T01:14:53;10.40;99.90
7216;DHT22;3649;48.798;9.798;2023-12-14T01:17:20;10.30;99.90
7216;DHT22;3649;48.798;9.798;2023-12-14T01:19:46;10.40;99.90
7216;DHT22;3649;48.798;9.798;2023-12-14T01:22:13;10.40;99.90
7216;DHT22;3649;48.798;9.798;2023-12-14T01:24:42;10.40;99.90
7216;DHT22;3649;48.798;9.798;2023-12-14T01:27:09;10.50;99.90
7216;DHT22;3649;48.798;9.798;2023-12-14T01:29:37;10.40;99.90
7216;DHT22;3649;48.798;9.798;2023-12-14T01:32:04;10.40;99.90
7216;DHT22;3649;48.798;9.798;2023-12-14T01:34:31;10.40;99.90
7216;DHT22;3649;48.798;9.798;2023-12-14T01:36:58;10.30;99.90
7216;DHT22;3649;48.798;9.798;2023-12-14T01:39:24;10.30;99.90
7216;DHT22;3649;48.798;9.798;2023-12-14T01:41:51;10.40;99.90
7216;DHT22;3649;48.798;9.798;2023-12-14T01:44:18;10.40;99.90
7216;DHT22;3649;48.798;9.798;2023-12-14T01:46:45;10.30;99.90
7216;DHT22;3649;48.798;9.798;2023-12-14T01:49:11;10.40;99.90
7216;DHT22;3649;48.798;9.798;2023-12-14T01:51:38;10.40;99.90
7216;DHT22;3649;48.798;9.798;2023-12-14T01:54:05;10.40;99.90
7216;DHT22;3649;48.798;9.798;2023-12-14T01:56:32;10.50;99.90
7216;DHT22;3649;48.798;9.798;2023-12-14T01:58:59;10.40;99.90
7216;DHT22;3649;48.798;9.798;2023-12-14T02:01:43;10.30;99.90
7216;DHT22;3649;48.798;9.798;2023-12-14T02:04:12;10.30;99.90
7216;DHT22;3649;48.798;9.798;2023-12-14T02:06:39;10.40;99.90
7216;DHT22;3649;48.798;9.798;2023-12-14T02:09:06;10.40;99.90
7216;DHT22;3649;48.798;9.798;2023-12-14T02:11:33;10.30;99.90
7216;DHT22;3649;48.798;9.798;2023-12-14T02:14:08;10.30;99.90
7216;DHT22;3649;48.798;9.798;2023-12-14T02:16:35;10.40;99.90
7216;DHT22;3649;48.798;9.798;2023-12-14T02:19:05;10.30;99.90
7216;DHT22;3649;48.798;9.798;2023-12-14T02:21:32;10.30;99.90
7216;DHT22;3649;48.798;9.798;2023-12-14T02:23:59;10.30;99.90
7216;DHT22;3649;48.798;9.798;2023-12-14T02:26:26;10.20;99.90
7216;DHT22;3649;48.798;9.798;2023-12-14T02:28:53;10.20;99.90
7216;DHT22;3649;48.798;9.798;2023-12-14T02:31:19;10.20;99.90
7216;DHT22;3649;48.798;9.798;2023-12-14T02:33:46;10.10;99.90
7216;DHT22;3649;48.798;9.798;2023-12-14T02:36:13;10.10;99.90
7216;DHT22;3649;48.798;9.798;2023-12-14T02:38:40;10.10;99.90
7216;DHT22;3649;48.798;9.798;2023-12-14T02:41:07;10.20;99.90
7216;DHT22;3649;48.798;9.798;2023-12-14T02:43:34;10.20;99.90
7216;DHT22;3649;48.798;9.798;2023-12-14T02:46:01;10.20;99.90
7216;DHT22;3649;48.798;9.798;2023-12-14T02:48:28;10.30;99.90
7216;DHT22;3649;48.798;9.798;2023-12-14T02:50:59;10.30;99.90
7216;DHT22;3649;48.798;9.798;2023-12-14T02:53:27;10.40;99.90
7216;DHT22;3649;48.798;9.798;2023-12-14T02:55:54;10.40;99.90
7216;DHT22;3649;48.798;9.798;2023-12-14T02:58:22;10.40;99.90
7216;DHT22;3649;48.798;9.798;2023-12-14T03:00:49;10.50;99.90
7216;DHT22;3649;48.798;9.798;2023-12-14T03:03:15;10.40;99.90
7216;DHT22;3649;48.798;9.798;2023-12-14T03:05:42;10.30;99.90
7216;DHT22;3649;48.798;9.798;2023-12-14T03:08:09;10.30;99.90
7216;DHT22;3649;48.798;9.798;2023-12-14T03:10:36;10.30;99.90
7216;DHT22;3649;48.798;9.798;2023-12-14T03:13:03;10.40;99.90
7216;DHT22;3649;48.798;9.798;2023-12-14T03:15:29;10.30;99.90
7216;DHT22;3649;48.798;9.798;2023-12-14T03:17:56;10.30;99.90
7216;DHT22;3649;48.798;9.798;2023-12-14T03:20:23;10.30;99.90
7216;DHT22;3649;48.798;9.798;2023-12-14T03:22:50;10.30;99.90
7216;DHT22;3649;48.798;9.798;2023-12-14T03:25:17;10.30;99.90
7216;DHT22;3649;48.798;9.798;2023-12-14T03:27:47;10.40;99.90
7216;DHT22;3649;48.798;9.798;2023-12-14T03:30:14;10.40;99.90
7216;DHT22;3649;48.798;9.798;2023-12-14T03:32:41;10.40;99.90
7216;DHT22;3649;48.798;9.798;2023-12-14T03:35:09;10.50;99.90
7216;DHT22;3649;48.798;9.798;2023-12-14T03:37:36;10.50;99.90
7216;DHT22;3649;48.798;9.798;2023-12-14T03:40:03;10.60;99.90
7216;DHT22;3649;48.798;9.798;2023-12-14T03:42:30;10.40;99.90
7216;DHT22;3649;48.798;9.798;2023-12-14T03:44:57;10.50;99.90
7216;DHT22;3649;48.798;9.798;2023-12-14T03:47:24;10.50;99.90
7216;DHT22;3649;48.798;9.798;2023-12-14T03:49:50;10.40;99.90
7216;DHT22;3649;48.798;9.798;2023-12-14T03:52:18;10.40;99.90
7216;DHT22;3649;48.798;9.798;2023-12-14T03:54:44;10.50;99.90
7216;DHT22;3649;48.798;9.798;2023-12-14T03:57:11;10.50;99.90
7216;DHT22;3649;48.798;9.798;2023-12-14T03:59:41;10.50;99.90
7216;DHT22;3649;48.798;9.798;2023-12-14T04:02:08;10.40;99.90
7216;DHT22;3649;48.798;9.798;2023-12-14T04:04:35;10.40;99.90
7216;DHT22;3649;48.798;9.798;2023-12-14T04:07:01;10.40;99.90
7216;DHT22;3649;48.798;9.798;2023-12-14T04:09:28;10.40;99.90
7216;DHT22;3649;48.798;9.798;2023-12-14T04:11:55;10.40;99.90
7216;DHT22;3649;48.798;9.798;2023-12-14T04:14:22;10.40;99.90
7216;DHT22;3649;48.798;9.798;2023-12-14T04:16:48;10.30;99.90
7216;DHT22;3649;48.798;9.798;2023-12-14T04:19:15;10.40;99.90
7216;DHT22;3649;48.798;9.798;2023-12-14T04:21:42;10.40;99.90
7216;DHT22;3649;48.798;9.798;2023-12-14T04:24:09;10.40;99.90
7216;DHT22;3649;48.798;9.798;2023-12-14T04:26:36;10.30;99.90
7216;DHT22;3649;48.798;9.798;2023-12-14T04:29:02;10.30;99.90
7216;DHT22;3649;48.798;9.798;2023-12-14T04:31:29;10.30;99.90
7216;DHT22;3649;48.798;9.798;2023-12-14T04:33:56;10.30;99.90
7216;DHT22;3649;48.798;9.798;2023-12-14T04:36:23;10.30;99.90
7216;DHT22;3649;48.798;9.798;2023-12-14T04:38:50;10.30;99.90
7216;DHT22;3649;48.798;9.798;2023-12-14T04:41:16;10.30;99.90
7216;DHT22;3649;48.798;9.798;2023-12-14T04:43:43;10.30;99.90
7216;DHT22;3649;48.798;9.798;2023-12-14T04:46:10;10.30;99.90
7216;DHT22;3649;48.798;9.798;2023-12-14T04:48:37;10.40;99.90
7216;DHT22;3649;48.798;9.798;2023-12-14T04:51:04;10.40;99.90
7216;DHT22;3649;48.798;9.798;2023-12-14T04:53:31;10.40;99.90
7216;DHT22;3649;48.798;9.798;2023-12-14T04:55:58;10.40;99.90
7216;DHT22;3649;48.798;9.798;2023-12-14T04:58:25;10.40;99.90
7216;DHT22;3649;48.798;9.798;2023-12-14T05:00:51;10.30;99.90
7216;DHT22;3649;48.798;9.798;2023-12-14T05:03:18;10.30;99.90
7216;DHT22;3649;48.798;9.798;2023-12-14T05:05:45;10.40;99.90
7216;DHT22;3649;48.798;9.798;2023-12-14T05:08:12;10.40;99.90
7216;DHT22;3649;48.798;9.798;2023-12-14T05:10:39;10.40;99.90
7216;DHT22;3649;48.798;9.798;2023-12-14T05:13:06;10.30;99.90
7216;DHT22;3649;48.798;9.798;2023-12-14T05:15:34;10.40;99.90
7216;DHT22;3649;48.798;9.798;2023-12-14T05:18:00;10.50;99.90
7216;DHT22;3649;48.798;9.798;2023-12-14T05:20:27;10.40;99.90
7216;DHT22;3649;48.798;9.798;2023-12-14T05:22:54;10.40;99.90
7216;DHT22;3649;48.798;9.798;2023-12-14T05:25:22;10.50;99.90
7216;DHT22;3649;48.798;9.798;2023-12-14T05:27:48;10.50;99.90
7216;DHT22;3649;48.798;9.798;2023-12-14T05:30:15;10.50;99.90
7216;DHT22;3649;48.798;9.798;2023-12-14T05:32:42;10.50;99.90
7216;DHT22;3649;48.798;9.798;2023-12-14T05:35:10;10.50;99.90
7216;DHT22;3649;48.798;9.798;2023-12-14T05:37:38;10.60;99.90
7216;DHT22;3649;48.798;9.798;2023-12-14T05:40:06;10.60;99.90
7216;DHT22;3649;48.798;9.798;2023-12-14T05:42:34;10.50;99.90
7216;DHT22;3649;48.798;9.798;2023-12-14T05:45:01;10.50;99.90
7216;DHT22;3649;48.798;9.798;2023-12-14T05:47:28;10.50;99.90
7216;DHT22;3649;48.798;9.798;2023-12-14T05:49:54;10.50;99.90
7216;DHT22;3649;48.798;9.798;2023-12-14T05:52:21;10.50;99.90
7216;DHT22;3649;48.798;9.798;2023-12-14T05:54:48;10.60;99.90
7216;DHT22;3649;48.798;9.798;2023-12-14T05:57:15;10.50;99.90
7216;DHT22;3649;48.798;9.798;2023-12-14T05:59:42;10.50;99.90
7216;DHT22;3649;48.798;9.798;2023-12-14T06:02:09;10.50;99.90
7216;DHT22;3649;48.798;9.798;2023-12-14T06:04:36;10.60;99.90
7216;DHT22;3649;48.798;9.798;2023-12-14T06:07:03;10.60;99.90
7216;DHT22;3649;48.798;9.798;2023-12-14T06:09:30;10.60;99.90
7216;DHT22;3649;48.798;9.798;2023-12-14T06:12:02;10.50;99.90
7216;DHT22;3649;48.798;9.798;2023-12-14T06:14:29;10.60;99.90
7216;DHT22;3649;48.798;9.798;2023-12-14T06:16:58;10.60;99.90
7216;DHT22;3649;48.798;9.798;2023-12-14T06:19:25;10.60;99.90
7216;DHT22;3649;48.798;9.798;2023-12-14T06:21:52;10.60;99.90
7216;DHT22;3649;48.798;9.798;2023-12-14T06:24:19;10.60;99.90
7216;DHT22;3649;48.798;9.798;2023-12-14T06:26:48;10.60;99.90
7216;DHT22;3649;48.798;9.798;2023-12-14T06:29:14;10.70;99.90
7216;DHT22;3649;48.798;9.798;2023-12-14T06:31:41;10.70;99.90
7216;DHT22;3649;48.798;9.798;2023-12-14T06:34:08;10.70;99.90
7216;DHT22;3649;48.798;9.798;2023-12-14T06:36:35;10.80;99.90
7216;DHT22;3649;48.798;9.798;2023-12-14T06:39:02;10.70;99.90
7216;DHT22;3649;48.798;9.798;2023-12-14T06:41:32;10.70;99.90
7216;DHT22;3649;48.798;9.798;2023-12-14T06:43:59;10.70;99.90
7216;DHT22;3649;48.798;9.798;2023-12-14T06:46:26;10.70;99.90
7216;DHT22;3649;48.798;9.798;2023-12-14T06:48:53;10.70;99.90
7216;DHT22;3649;48.798;9.798;2023-12-14T06:51:21;10.80;99.90
7216;DHT22;3649;48.798;9.798;2023-12-14T06:53:48;10.70;99.90
7216;DHT22;3649;48.798;9.798;2023-12-14T06:56:15;10.70;99.90
7216;DHT22;3649;48.798;9.798;2023-12-14T06:58:43;10.70;99.90
7216;DHT22;3649;48.798;9.798;2023-12-14T07:01:14;10.70;99.90
7216;DHT22;3649;48.798;9.798;2023-12-14T07:03:47;10.70;99.90
7216;DHT22;3649;48.798;9.798;2023-12-14T07:06:16;10.60;99.90
7216;DHT22;3649;48.798;9.798;2023-12-14T07:08:44;10.60;99.90
7216;DHT22;3649;48.798;9.798;2023-12-14T07:11:12;10.60;99.90
7216;DHT22;3649;48.798;9.798;2023-12-14T07:13:39;10.70;99.90
7216;DHT22;3649;48.798;9.798;2023-12-14T07:16:07;10.90;99.90
7216;DHT22;3649;48.798;9.798;2023-12-14T07:18:39;10.80;99.90
7216;DHT22;3649;48.798;9.798;2023-12-14T07:21:07;10.80;99.90
7216;DHT22;3649;48.798;9.798;2023-12-14T07:23:34;10.90;99.90
7216;DHT22;3649;48.798;9.798;2023-12-14T07:26:02;10.90;99.90
7216;DHT22;3649;48.798;9.798;2023-12-14T07:28:32;10.80;99.90
7216;DHT22;3649;48.798;9.798;2023-12-14T07:30:59;10.80;99.90
7216;DHT22;3649;48.798;9.798;2023-12-14T07:33:26;10.90;99.90
7216;DHT22;3649;48.798;9.798;2023-12-14T07:35:53;10.90;99.90
7216;DHT22;3649;48.798;9.798;2023-12-14T07:38:19;10.80;99.90
7216;DHT22;3649;48.798;9.798;2023-12-14T07:40:46;10.70;99.90
7216;DHT22;3649;48.798;9.798;2023-12-14T07:43:13;10.70;99.90
7216;DHT22;3649;48.798;9.798;2023-12-14T07:45:40;10.70;99.90
7216;DHT22;3649;48.798;9.798;2023-12-14T07:48:07;10.70;99.90
7216;DHT22;3649;48.798;9.798;2023-12-14T07:50:34;10.80;99.90
7216;DHT22;3649;48.798;9.798;2023-12-14T07:53:01;10.80;99.90
7216;DHT22;3649;48.798;9.798;2023-12-14T07:55:28;10.70;99.90
7216;DHT22;3649;48.798;9.798;2023-12-14T07:57:55;10.70;99.90
7216;DHT22;3649;48.798;9.798;2023-12-14T08:00:22;10.60;99.90
7216;DHT22;3649;48.798;9.798;2023-12-14T08:02:49;10.60;99.90
7216;DHT22;3649;48.798;9.798;2023-12-14T08:05:16;10.70;99.90
7216;DHT22;3649;48.798;9.798;2023-12-14T08:07:42;10.80;99.90
7216;DHT22;3649;48.798;9.798;2023-12-14T08:10:09;10.80;99.90
7216;DHT22;3649;48.798;9.798;2023-12-14T08:12:36;10.80;99.90
7216;DHT22;3649;48.798;9.798;2023-12-14T08:15:04;10.80;99.90
7216;DHT22;3649;48.798;9.798;2023-12-14T08:17:31;10.70;99.90
7216;DHT22;3649;48.798;9.798;2023-12-14T08:19:58;10.70;99.90
7216;DHT22;3649;48.798;9.798;2023-12-14T08:22:25;10.80;99.90
7216;DHT22;3649;48.798;9.798;2023-12-14T08:24:51;10.70;99.90
7216;DHT22;3649;48.798;9.798;2023-12-14T08:27:18;10.80;99.90
7216;DHT22;3649;48.798;9.798;2023-12-14T08:29:45;10.70;99.90
7216;DHT22;3649;48.798;9.798;2023-12-14T08:32:12;10.80;99.90
7216;DHT22;3649;48.798;9.798;2023-12-14T08:34:40;10.80;99.90
7216;DHT22;3649;48.798;9.798;2023-12-14T08:37:07;11.00;99.90
7216;DHT22;3649;48.798;9.798;2023-12-14T08:39:35;10.90;99.90
7216;DHT22;3649;48.798;9.798;2023-12-14T08:42:02;10.90;99.90
7216;DHT22;3649;48.798;9.798;2023-12-14T08:44:28;11.00;99.90
7216;DHT22;3649;48.798;9.798;2023-12-14T08:46:55;11.10;99.90
7216;DHT22;3649;48.798;9.798;2023-12-14T08:49:22;11.00;99.90
7216;DHT22;3649;48.798;9.798;2023-12-14T08:51:50;11.10;99.90
7216;DHT22;3649;48.798;9.798;2023-12-14T08:54:17;11.00;99.90
7216;DHT22;3649;48.798;9.798;2023-12-14T08:56:44;11.20;99.90
7216;DHT22;3649;48.798;9.798;2023-12-14T08:59:10;11.20;99.90
7216;DHT22;3649;48.798;9.798;2023-12-14T09:01:38;11.20;99.90
7216;DHT22;3649;48.798;9.798;2023-12-14T09:04:06;11.20;99.90
7216;DHT22;3649;48.798;9.798;2023-12-14T09:06:33;11.30;99.90
7216;DHT22;3649;48.798;9.798;2023-12-14T09:09:00;11.20;99.90
7216;DHT22;3649;48.798;9.798;2023-12-14T09:11:26;11.20;99.90
7216;DHT22;3649;48.798;9.798;2023-12-14T09:13:53;11.10;99.90
7216;DHT22;3649;48.798;9.798;2023-12-14T09:16:20;11.10;99.90
7216;DHT22;3649;48.798;9.798;2023-12-14T09:18:47;11.10;99.90
7216;DHT22;3649;48.798;9.798;2023-12-14T09:21:14;11.10;99.90
7216;DHT22;3649;48.798;9.798;2023-12-14T09:23:42;11.10;99.90
7216;DHT22;3649;48.798;9.798;2023-12-14T09:26:09;11.10;99.90
7216;DHT22;3649;48.798;9.798;2023-12-14T09:28:37;11.30;99.90
7216;DHT22;3649;48.798;9.798;2023-12-14T09:31:04;11.20;99.90
7216;DHT22;3649;48.798;9.798;2023-12-14T09:33:34;11.20;99.90
7216;DHT22;3649;48.798;9.798;2023-12-14T09:36:02;11.20;99.90
7216;DHT22;3649;48.798;9.798;2023-12-14T09:38:29;11.30;99.90
7216;DHT22;3649;48.798;9.798;2023-12-14T09:40:56;11.30;99.90
7216;DHT22;3649;48.798;9.798;2023-12-14T09:43:23;11.30;99.90
7216;DHT22;3649;48.798;9.798;2023-12-14T09:45:51;11.30;99.90
7216;DHT22;3649;48.798;9.798;2023-12-14T09:48:19;11.30;99.90
7216;DHT22;3649;48.798;9.798;2023-12-14T09:50:47;11.20;99.90
7216;DHT22;3649;48.798;9.798;2023-12-14T09:53:15;11.20;99.90
7216;DHT22;3649;48.798;9.798;2023-12-14T09:55:43;11.20;99.90
7216;DHT22;3649;48.798;9.798;2023-12-14T09:58:10;11.20;99.90
7216;DHT22;3649;48.798;9.798;2023-12-14T10:00:39;11.30;99.90
7216;DHT22;3649;48.798;9.798;2023-12-14T10:03:24;11.30;99.90
7216;DHT22;3649;48.798;9.798;2023-12-14T10:05:57;11.30;99.90
7216;DHT22;3649;48.798;9.798;2023-12-14T10:08:25;11.40;99.90
7216;DHT22;3649;48.798;9.798;2023-12-14T10:10:54;11.40;99.90
7216;DHT22;3649;48.798;9.798;2023-12-14T10:13:36;11.40;99.90
7216;DHT22;3649;48.798;9.798;2023-12-14T10:16:04;11.40;99.90
7216;DHT22;3649;48.798;9.798;2023-12-14T10:18:32;11.30;99.90
7216;DHT22;3649;48.798;9.798;2023-12-14T10:21:05;11.50;99.90
7216;DHT22;3649;48.798;9.798;2023-12-14T10:23:33;11.50;99.90
7216;DHT22;3649;48.798;9.798;2023-12-14T10:26:01;11.50;99.90
7216;DHT22;3649;48.798;9.798;2023-12-14T10:28:30;11.50;99.90
7216;DHT22;3649;48.798;9.798;2023-12-14T10:30:57;11.70;99.90
7216;DHT22;3649;48.798;9.798;2023-12-14T10:33:24;11.40;99.90
7216;DHT22;3649;48.798;9.798;2023-12-14T10:35:51;11.40;99.90
7216;DHT22;3649;48.798;9.798;2023-12-14T10:38:18;11.40;99.90
7216;DHT22;3649;48.798;9.798;2023-12-14T10:40:46;11.40;99.90
7216;DHT22;3649;48.798;9.798;2023-12-14T10:43:13;11.40;99.90
7216;DHT22;3649;48.798;9.798;2023-12-14T10:45:52;11.60;99.90
7216;DHT22;3649;48.798;9.798;2023-12-14T10:48:21;11.60;99.90
7216;DHT22;3649;48.798;9.798;2023-12-14T10:50:48;11.60;99.90
7216;DHT22;3649;48.798;9.798;2023-12-14T10:53:17;11.60;99.90
7216;DHT22;3649;48.798;9.798;2023-12-14T10:55:44;11.70;99.90
7216;DHT22;3649;48.798;9.798;2023-12-14T10:58:12;11.70;99.90
7216;DHT22;3649;48.798;9.798;2023-12-14T11:00:39;11.60;99.90
7216;DHT22;3649;48.798;9.798;2023-12-14T11:03:06;11.60;99.90
7216;DHT22;3649;48.798;9.798;2023-12-14T11:05:34;11.60;99.90
7216;DHT22;3649;48.798;9.798;2023-12-14T11:08:05;11.60;99.90
7216;DHT22;3649;48.798;9.798;2023-12-14T11:13:09;11.40;99.90
7216;DHT22;3649;48.798;9.798;2023-12-14T11:15:38;11.40;99.90
7216;DHT22;3649;48.798;9.798;2023-12-14T11:23:17;11.30;99.90
7216;DHT22;3649;48.798;9.798;2023-12-14T11:26:03;11.30;99.90
7216;DHT22;3649;48.798;9.798;2023-12-14T11:28:32;11.20;99.90
7216;DHT22;3649;48.798;9.798;2023-12-14T11:31:00;11.20;99.90
7216;DHT22;3649;48.798;9.798;2023-12-14T11:33:28;11.20;99.90
7216;DHT22;3649;48.798;9.798;2023-12-14T11:35:56;11.40;99.90
7216;DHT22;3649;48.798;9.798;2023-12-14T11:38:25;11.30;99.90
7216;DHT22;3649;48.798;9.798;2023-12-14T11:40:52;11.40;99.90
7216;DHT22;3649;48.798;9.798;2023-12-14T11:43:19;11.30;99.90
7216;DHT22;3649;48.798;9.798;2023-12-14T11:45:50;11.90;99.90
7216;DHT22;3649;48.798;9.798;2023-12-14T11:48:17;11.30;99.90
7216;DHT22;3649;48.798;9.798;2023-12-14T11:50:47;12.90;99.90
7216;DHT22;3649;48.798;9.798;2023-12-14T11:53:14;11.30;99.90
7216;DHT22;3649;48.798;9.798;2023-12-14T11:55:42;11.40;99.90
7216;DHT22;3649;48.798;9.798;2023-12-14T11:58:12;11.50;99.90
7216;DHT22;3649;48.798;9.798;2023-12-14T12:00:41;11.50;99.90
7216;DHT22;3649;48.798;9.798;2023-12-14T12:03:20;11.60;99.90
7216;DHT22;3649;48.798;9.798;2023-12-14T12:05:49;11.50;99.90
7216;DHT22;3649;48.798;9.798;2023-12-14T12:08:19;11.60;99.90
7216;DHT22;3649;48.798;9.798;2023-12-14T12:10:47;11.60;99.90
7216;DHT22;3649;48.798;9.798;2023-12-14T12:13:19;11.60;99.90
7216;DHT22;3649;48.798;9.798;2023-12-14T12:15:47;11.60;99.90
7216;DHT22;3649;48.798;9.798;2023-12-14T12:18:16;11.70;99.90
7216;DHT22;3649;48.798;9.798;2023-12-14T12:20:46;11.60;99.90
7216;DHT22;3649;48.798;9.798;2023-12-14T12:23:13;11.60;99.90
7216;DHT22;3649;48.798;9.798;2023-12-14T12:25:40;11.60;99.90
7216;DHT22;3649;48.798;9.798;2023-12-14T12:28:07;13.80;99.90
7216;DHT22;3649;48.798;9.798;2023-12-14T12:30:34;11.70;99.90
7216;DHT22;3649;48.798;9.798;2023-12-14T12:33:05;11.80;99.90
7216;DHT22;3649;48.798;9.798;2023-12-14T12:35:32;11.80;99.90
7216;DHT22;3649;48.798;9.798;2023-12-14T12:38:00;11.90;99.90
7216;DHT22;3649;48.798;9.798;2023-12-14T12:40:28;11.80;99.90
7216;DHT22;3649;48.798;9.798;2023-12-14T12:42:57;11.80;99.90
7216;DHT22;3649;48.798;9.798;2023-12-14T12:45:24;11.80;99.90
7216;DHT22;3649;48.798;9.798;2023-12-14T12:47:55;11.70;99.90
7216;DHT22;3649;48.798;9.798;2023-12-14T12:50:22;11.80;99.90
7216;DHT22;3649;48.798;9.798;2023-12-14T12:52:49;11.80;99.90
7216;DHT22;3649;48.798;9.798;2023-12-14T12:55:17;11.80;99.90
7216;DHT22;3649;48.798;9.798;2023-12-14T12:57:44;11.80;99.90
7216;DHT22;3649;48.798;9.798;2023-12-14T13:00:11;11.80;99.90
7216;DHT22;3649;48.798;9.798;2023-12-14T13:02:40;11.80;99.90
7216;DHT22;3649;48.798;9.798;2023-12-14T13:05:08;11.80;99.90
7216;DHT22;3649;48.798;9.798;2023-12-14T13:07:38;11.80;99.90
7216;DHT22;3649;48.798;9.798;2023-12-14T13:10:06;11.80;99.90
7216;DHT22;3649;48.798;9.798;2023-12-14T13:12:54;11.80;99.90
7216;DHT22;3649;48.798;9.798;2023-12-14T13:15:22;11.80;99.90
7216;DHT22;3649;48.798;9.798;2023-12-14T13:17:53;11.80;99.90
7216;DHT22;3649;48.798;9.798;2023-12-14T13:20:21;11.90;99.90
7216;DHT22;3649;48.798;9.798;2023-12-14T13:22:48;11.90;99.90
7216;DHT22;3649;48.798;9.798;2023-12-14T13:25:15;11.80;99.90
7216;DHT22;3649;48.798;9.798;2023-12-14T13:27:42;11.80;99.90
7216;DHT22;3649;48.798;9.798;2023-12-14T13:30:11;12.90;99.90
7216;DHT22;3649;48.798;9.798;2023-12-14T13:32:43;11.90;99.90
7216;DHT22;3649;48.798;9.798;2023-12-14T13:35:10;12.00;99.90
7216;DHT22;3649;48.798;9.798;2023-12-14T13:37:37;12.00;99.90
7216;DHT22;3649;48.798;9.798;2023-12-14T13:40:05;12.10;99.90
7216;DHT22;3649;48.798;9.798;2023-12-14T13:42:32;11.90;99.90
7216;DHT22;3649;48.798;9.798;2023-12-14T13:44:59;11.80;99.90
7216;DHT22;3649;48.798;9.798;2023-12-14T13:47:26;11.80;99.90
7216;DHT22;3649;48.798;9.798;2023-12-14T13:49:53;11.80;99.90
7216;DHT22;3649;48.798;9.798;2023-12-14T13:52:20;11.80;99.90
7216;DHT22;3649;48.798;9.798;2023-12-14T13:54:47;11.90;99.90
7216;DHT22;3649;48.798;9.798;2023-12-14T13:57:14;12.00;99.90
7216;DHT22;3649;48.798;9.798;2023-12-14T13:59:41;11.90;99.90
7216;DHT22;3649;48.798;9.798;2023-12-14T14:02:08;12.00;99.90
7216;DHT22;3649;48.798;9.798;2023-12-14T14:04:35;12.00;99.90
7216;DHT22;3649;48.798;9.798;2023-12-14T14:07:02;12.00;99.90
7216;DHT22;3649;48.798;9.798;2023-12-14T14:09:29;11.80;99.90
7216;DHT22;3649;48.798;9.798;2023-12-14T14:11:57;11.70;99.90
7216;DHT22;3649;48.798;9.798;2023-12-14T14:14:24;11.60;99.90
7216;DHT22;3649;48.798;9.798;2023-12-14T14:16:51;11.60;99.90
7216;DHT22;3649;48.798;9.798;2023-12-14T14:19:18;11.40;99.90
7216;DHT22;3649;48.798;9.798;2023-12-14T14:21:45;11.40;99.90
7216;DHT22;3649;48.798;9.798;2023-12-14T14:24:12;12.30;99.90
7216;DHT22;3649;48.798;9.798;2023-12-14T14:26:39;11.20;99.90
7216;DHT22;3649;48.798;9.798;2023-12-14T14:29:06;12.10;99.90
7216;DHT22;3649;48.798;9.798;2023-12-14T14:31:37;11.10;99.90
7216;DHT22;3649;48.798;9.798;2023-12-14T14:34:04;11.10;99.90
7216;DHT22;3649;48.798;9.798;2023-12-14T14:36:32;11.00;99.90
7216;DHT22;3649;48.798;9.798;2023-12-14T14:38:59;11.00;99.90
7216;DHT22;3649;48.798;9.798;2023-12-14T14:41:26;11.00;99.90
7216;DHT22;3649;48.798;9.798;2023-12-14T14:43:53;11.00;99.90
7216;DHT22;3649;48.798;9.798;2023-12-14T14:46:19;11.10;99.90
7216;DHT22;3649;48.798;9.798;2023-12-14T14:48:46;11.10;99.90
7216;DHT22;3649;48.798;9.798;2023-12-14T14:51:14;11.00;99.90
7216;DHT22;3649;48.798;9.798;2023-12-14T14:53:40;11.00;99.90
7216;DHT22;3649;48.798;9.798;2023-12-14T14:56:11;11.00;99.90
7216;DHT22;3649;48.798;9.798;2023-12-14T14:58:38;11.00;99.90
7216;DHT22;3649;48.798;9.798;2023-12-14T15:01:04;11.00;99.90
7216;DHT22;3649;48.798;9.798;2023-12-14T15:03:32;12.20;99.90
7216;DHT22;3649;48.798;9.798;2023-12-14T15:05:59;11.10;99.90
7216;DHT22;3649;48.798;9.798;2023-12-14T15:08:26;11.00;99.90
7216;DHT22;3649;48.798;9.798;2023-12-14T15:10:53;11.00;99.90
7216;DHT22;3649;48.798;9.798;2023-12-14T15:13:22;10.90;99.90
7216;DHT22;3649;48.798;9.798;2023-12-14T15:15:49;11.10;99.90
7216;DHT22;3649;48.798;9.798;2023-12-14T15:18:16;11.10;99.90
7216;DHT22;3649;48.798;9.798;2023-12-14T15:20:43;11.10;99.90
7216;DHT22;3649;48.798;9.798;2023-12-14T15:23:10;11.20;99.90
7216;DHT22;3649;48.798;9.798;2023-12-14T15:25:37;11.10;99.90
7216;DHT22;3649;48.798;9.798;2023-12-14T15:28:04;11.10;99.90
7216;DHT22;3649;48.798;9.798;2023-12-14T15:30:30;11.10;99.90
7216;DHT22;3649;48.798;9.798;2023-12-14T15:32:58;11.10;99.90
7216;DHT22;3649;48.798;9.798;2023-12-14T15:35:25;11.10;99.90
7216;DHT22;3649;48.798;9.798;2023-12-14T15:37:52;11.10;99.90
7216;DHT22;3649;48.798;9.798;2023-12-14T15:40:19;11.20;99.90
7216;DHT22;3649;48.798;9.798;2023-12-14T15:42:45;11.20;99.90
7216;DHT22;3649;48.798;9.798;2023-12-14T15:45:17;11.20;99.90
7216;DHT22;3649;48.798;9.798;2023-12-14T15:47:46;11.20;99.90
7216;DHT22;3649;48.798;9.798;2023-12-14T15:50:13;11.20;99.90
7216;DHT22;3649;48.798;9.798;2023-12-14T15:52:41;11.20;99.90
7216;DHT22;3649;48.798;9.798;2023-12-14T15:55:09;11.20;99.90
7216;DHT22;3649;48.798;9.798;2023-12-14T15:57:36;11.20;99.90
7216;DHT22;3649;48.798;9.798;2023-12-14T16:00:03;11.20;99.90
7216;DHT22;3649;48.798;9.798;2023-12-14T16:02:30;11.30;99.90
7216;DHT22;3649;48.798;9.798;2023-12-14T16:04:57;11.20;99.90
7216;DHT22;3649;48.798;9.798;2023-12-14T16:07:24;11.20;99.90
7216;DHT22;3649;48.798;9.798;2023-12-14T16:09:51;11.30;99.90
7216;DHT22;3649;48.798;9.798;2023-12-14T16:12:18;11.20;99.90